Marple Township, Pennsylvania
Current Conditions -  °F | °C
As of 11:19 AM on Wednesday 22 Oct 2014 (Local Time) from KPHL Reporting Station
Heavy Rain Heavy Rain  
Wind Chill: 56°   Ceiling: 1500
Heat Index: 56°   Visibility: 7mi
Dew Point: 52°   Wind: 18mph
Humidity: 87%   Direction: 10°N
Pressure: 29.88"   Gusts: 26mph
Location:  39.9737°N, 75.3608°W
Report Text: KPHL 221519Z 01016G23KT 7SM +RA BKN015 OVC070 13/11 A2988 RMK AO2 PK WND 02026/1455 P0001 T01330111 $
Loading
Personal Weather Stations






























Interactive Weather Map
Tropical Storm Tracking
New forecast layout! Learn more

10-Day Weather Forecast

Advertisements
Track Severe Weather on mobile